createdAt,value
2018-10-18T00:00:47.109Z,23.80
2018-10-18T00:03:15.445Z,22.90
2018-10-18T00:05:43.805Z,24.03
2018-10-18T00:08:12.192Z,23.87
2018-10-18T00:10:40.557Z,23.50
2018-10-18T00:13:08.989Z,23.47
2018-10-18T00:15:37.364Z,24.17
2018-10-18T00:18:06.153Z,24.83
2018-10-18T00:20:34.529Z,26.20
2018-10-18T00:23:02.924Z,24.03
2018-10-18T00:25:31.325Z,29.07
2018-10-18T00:27:59.662Z,25.23
2018-10-18T00:30:28.110Z,25.07
2018-10-18T00:32:56.463Z,24.83
2018-10-18T00:35:24.843Z,25.20
2018-10-18T00:37:53.248Z,25.77
2018-10-18T00:40:21.690Z,25.00
2018-10-18T00:42:50.067Z,23.90
2018-10-18T00:45:18.459Z,25.13
2018-10-18T00:47:46.975Z,24.10
2018-10-18T00:50:15.448Z,24.63
2018-10-18T00:52:43.825Z,23.40
2018-10-18T00:55:12.437Z,24.20
2018-10-18T00:57:41.581Z,23.87
2018-10-18T01:00:10.825Z,23.80
2018-10-18T01:02:39.374Z,24.00
2018-10-18T01:05:07.914Z,23.03
2018-10-18T01:07:36.413Z,23.03
2018-10-18T01:10:05.123Z,21.77
2018-10-18T01:12:33.590Z,24.20
2018-10-18T01:15:02.023Z,23.17
2018-10-18T01:17:30.347Z,22.77
2018-10-18T01:19:58.694Z,21.13
2018-10-18T01:22:27.079Z,22.23
2018-10-18T01:24:55.434Z,22.33
2018-10-18T01:27:23.904Z,23.10
2018-10-18T01:29:52.303Z,21.87
2018-10-18T01:32:20.669Z,20.90
2018-10-18T01:34:49.009Z,21.20
2018-10-18T01:37:17.316Z,20.80
2018-10-18T01:39:45.737Z,22.40
2018-10-18T01:42:14.158Z,22.50
2018-10-18T01:44:42.513Z,23.87
2018-10-18T01:47:10.941Z,23.13
2018-10-18T01:49:39.345Z,22.27
2018-10-18T01:52:07.677Z,23.27
2018-10-18T01:54:35.988Z,23.40
2018-10-18T01:57:04.821Z,23.57
2018-10-18T01:59:33.163Z,22.63
2018-10-18T02:02:01.525Z,22.97
2018-10-18T02:04:29.948Z,25.03
2018-10-18T02:06:58.471Z,25.50
2018-10-18T02:09:26.818Z,24.20
2018-10-18T02:11:55.232Z,24.00
2018-10-18T02:14:23.575Z,25.90
2018-10-18T02:16:51.939Z,25.40
2018-10-18T02:19:20.409Z,25.60
2018-10-18T02:21:48.776Z,26.67
2018-10-18T02:24:17.310Z,25.77
2018-10-18T02:26:45.590Z,25.40
2018-10-18T02:29:13.951Z,23.87
2018-10-18T02:31:42.349Z,24.80
2018-10-18T02:34:10.765Z,24.60
2018-10-18T02:36:39.088Z,25.90
2018-10-18T02:39:08.643Z,26.10
2018-10-18T02:41:37.188Z,25.60
2018-10-18T02:44:05.617Z,25.07
2018-10-18T02:46:33.963Z,24.60
2018-10-18T02:49:02.303Z,24.30
2018-10-18T02:51:30.657Z,27.03
2018-10-18T02:53:59.116Z,25.63
2018-10-18T02:56:27.399Z,25.53
2018-10-18T02:58:55.685Z,28.90
2018-10-18T03:01:24.103Z,27.33
2018-10-18T03:03:52.443Z,28.20
2018-10-18T03:06:20.885Z,25.43
2018-10-18T03:08:49.203Z,27.70
2018-10-18T03:11:17.661Z,26.27
2018-10-18T03:13:46.051Z,28.63
2018-10-18T03:16:14.470Z,26.73
2018-10-18T03:18:42.823Z,26.27
2018-10-18T03:21:11.223Z,26.90
2018-10-18T03:23:39.649Z,27.10
2018-10-18T03:26:08.017Z,27.77
2018-10-18T03:28:36.355Z,28.07
2018-10-18T03:31:04.916Z,27.60
2018-10-18T03:33:33.351Z,27.67
2018-10-18T03:36:01.678Z,28.63
2018-10-18T03:38:29.970Z,27.07
2018-10-18T03:40:58.400Z,28.30
2018-10-18T03:43:26.678Z,25.80
2018-10-18T03:45:55.015Z,26.80
2018-10-18T03:48:23.412Z,26.67
2018-10-18T03:50:51.789Z,23.77
2018-10-18T03:53:20.149Z,26.83
2018-10-18T03:55:48.538Z,25.30
2018-10-18T03:58:16.905Z,24.83
2018-10-18T04:00:45.208Z,25.00
2018-10-18T04:03:13.551Z,24.80
2018-10-18T04:05:41.921Z,24.83
2018-10-18T04:08:10.315Z,23.37
2018-10-18T04:10:38.697Z,25.33
2018-10-18T04:13:07.047Z,24.87
2018-10-18T04:15:35.352Z,23.77
2018-10-18T04:18:03.817Z,22.50
2018-10-18T04:20:32.264Z,23.00
2018-10-18T04:23:00.738Z,23.33
2018-10-18T04:25:29.150Z,22.10
2018-10-18T04:27:57.453Z,24.00
2018-10-18T04:30:25.893Z,23.60
2018-10-18T04:32:54.214Z,22.70
2018-10-18T04:35:22.612Z,25.20
2018-10-18T04:37:50.996Z,23.13
2018-10-18T04:40:19.299Z,23.17
2018-10-18T04:42:47.625Z,22.53
2018-10-18T04:45:16.009Z,22.47
2018-10-18T04:47:44.415Z,23.67
2018-10-18T04:50:12.686Z,24.33
2018-10-18T04:52:41.127Z,25.23
2018-10-18T04:55:09.603Z,23.10
2018-10-18T04:57:38.045Z,24.53
2018-10-18T05:00:06.905Z,27.07
2018-10-18T05:02:35.429Z,24.50
2018-10-18T05:05:14.913Z,24.43
2018-10-18T05:07:43.285Z,24.10
2018-10-18T05:10:11.662Z,25.97
2018-10-18T05:12:40.080Z,25.13
2018-10-18T05:15:09.084Z,27.63
2018-10-18T05:17:37.510Z,24.90
2018-10-18T05:20:06.337Z,22.60
2018-10-18T05:22:34.752Z,25.17
2018-10-18T05:25:03.351Z,24.07
2018-10-18T05:27:31.806Z,24.77
2018-10-18T05:30:00.291Z,23.57
2018-10-18T05:32:28.715Z,23.10
2018-10-18T05:34:57.017Z,22.83
2018-10-18T05:37:25.485Z,22.30
2018-10-18T05:39:53.866Z,22.47
2018-10-18T05:42:22.201Z,21.43
2018-10-18T05:44:50.646Z,23.27
2018-10-18T05:47:19.262Z,19.43
2018-10-18T05:49:47.785Z,22.33
2018-10-18T05:52:16.152Z,23.17
2018-10-18T05:54:44.513Z,22.60
2018-10-18T05:57:12.975Z,24.00
2018-10-18T05:59:41.432Z,22.40
2018-10-18T06:02:09.769Z,21.87
2018-10-18T06:04:38.122Z,23.50
2018-10-18T06:07:06.631Z,23.27
2018-10-18T06:09:35.410Z,21.93
2018-10-18T06:12:04.252Z,22.90
2018-10-18T06:14:32.745Z,21.17
2018-10-18T06:17:01.145Z,22.80
2018-10-18T06:19:29.482Z,22.93
2018-10-18T06:21:57.926Z,22.67
2018-10-18T06:24:26.405Z,21.00
2018-10-18T06:26:54.783Z,21.50
2018-10-18T06:29:23.164Z,20.23
2018-10-18T06:31:51.543Z,22.90
2018-10-18T06:34:19.961Z,21.83
2018-10-18T06:36:48.368Z,20.83
2018-10-18T06:39:16.983Z,20.87
2018-10-18T06:41:45.229Z,21.43
2018-10-18T06:44:13.683Z,19.43
2018-10-18T06:46:42.159Z,21.60
2018-10-18T06:49:10.814Z,21.93
2018-10-18T06:51:39.059Z,24.53
2018-10-18T06:54:07.491Z,21.70
2018-10-18T06:56:35.891Z,19.13
2018-10-18T06:59:04.392Z,21.70
2018-10-18T07:01:32.782Z,21.63
2018-10-18T07:04:01.187Z,21.00
2018-10-18T07:06:29.582Z,21.87
2018-10-18T07:08:58.150Z,21.00
2018-10-18T07:11:26.492Z,22.37
2018-10-18T07:13:54.827Z,22.87
2018-10-18T07:16:23.251Z,22.80
2018-10-18T07:18:51.656Z,23.50
2018-10-18T07:21:20.063Z,23.83
2018-10-18T07:23:48.425Z,22.43
2018-10-18T07:26:16.841Z,23.87
2018-10-18T07:28:45.169Z,23.10
2018-10-18T07:31:13.553Z,22.93
2018-10-18T07:33:41.968Z,24.40
2018-10-18T07:36:10.466Z,22.60
2018-10-18T07:38:38.812Z,22.70
2018-10-18T07:41:07.345Z,24.17
2018-10-18T07:43:35.729Z,24.23
2018-10-18T07:46:04.527Z,23.43
2018-10-18T07:48:32.917Z,21.67
2018-10-18T07:51:01.327Z,21.47
2018-10-18T07:53:29.830Z,21.30
2018-10-18T07:55:58.195Z,24.43
2018-10-18T07:58:26.821Z,23.87
2018-10-18T08:00:55.267Z,22.60
2018-10-18T08:03:23.635Z,23.60
2018-10-18T08:05:52.004Z,23.40
2018-10-18T08:08:20.359Z,25.47
2018-10-18T08:10:48.777Z,25.20
2018-10-18T08:13:17.122Z,26.97
2018-10-18T08:15:45.482Z,24.43
2018-10-18T08:18:13.906Z,25.90
2018-10-18T08:20:42.324Z,25.47
2018-10-18T08:23:10.773Z,25.27
2018-10-18T08:25:39.264Z,28.17
2018-10-18T08:28:07.695Z,29.00
2018-10-18T08:30:36.120Z,29.17
2018-10-18T08:33:04.639Z,33.70
2018-10-18T08:35:33.009Z,32.70
2018-10-18T08:38:01.660Z,31.90
2018-10-18T08:40:29.963Z,30.67
2018-10-18T08:42:58.302Z,33.37
2018-10-18T08:45:26.761Z,33.40
2018-10-18T08:47:55.145Z,35.30
2018-10-18T08:50:23.542Z,32.33
2018-10-18T08:52:51.977Z,33.73
2018-10-18T08:55:20.583Z,33.40
2018-10-18T08:57:49.016Z,32.13
2018-10-18T09:00:17.413Z,33.70
2018-10-18T09:02:45.826Z,33.03
2018-10-18T09:05:14.144Z,32.53
2018-10-18T09:07:42.607Z,33.60
2018-10-18T09:10:11.124Z,32.57
2018-10-18T09:12:39.488Z,33.23
2018-10-18T09:15:09.015Z,32.30
2018-10-18T09:17:37.815Z,32.20
2018-10-18T09:20:06.329Z,33.50
2018-10-18T09:22:34.793Z,23.23
2018-10-18T09:25:03.210Z,27.90
2018-10-18T09:27:31.591Z,33.67
2018-10-18T09:29:59.958Z,28.27
2018-10-18T09:32:28.286Z,33.13
2018-10-18T09:34:56.624Z,31.63
2018-10-18T09:37:25.027Z,31.40
2018-10-18T09:39:53.338Z,31.60
2018-10-18T09:42:21.839Z,29.70
2018-10-18T09:44:50.271Z,29.97
2018-10-18T09:47:18.667Z,31.60
2018-10-18T09:49:47.083Z,32.20
2018-10-18T09:52:15.478Z,32.80
2018-10-18T09:54:43.859Z,32.83
2018-10-18T09:57:12.187Z,36.00
2018-10-18T09:59:40.585Z,33.63
2018-10-18T10:02:14.473Z,31.43
2018-10-18T10:04:42.910Z,35.40
2018-10-18T10:07:11.381Z,36.60
2018-10-18T10:09:40.375Z,40.07
2018-10-18T10:12:08.823Z,34.73
2018-10-18T10:14:37.180Z,37.63
2018-10-18T10:17:06.588Z,39.33
2018-10-18T10:19:34.915Z,38.93
2018-10-18T10:22:03.333Z,40.77
2018-10-18T10:24:31.761Z,40.97
2018-10-18T10:27:00.151Z,39.33
2018-10-18T10:29:28.550Z,38.77
2018-10-18T10:31:56.957Z,38.50
2018-10-18T10:34:25.353Z,37.20
2018-10-18T10:36:53.710Z,36.10
2018-10-18T10:39:22.135Z,35.00
2018-10-18T10:41:50.514Z,34.73
2018-10-18T10:44:19.000Z,35.67
2018-10-18T10:46:47.364Z,36.63
2018-10-18T10:49:15.857Z,37.83
2018-10-18T10:51:44.403Z,35.50
2018-10-18T10:54:12.906Z,36.10
2018-10-18T10:56:41.274Z,36.97
2018-10-18T10:59:13.957Z,37.40
2018-10-18T11:01:42.283Z,34.13
2018-10-18T11:04:10.723Z,35.90
2018-10-18T11:06:39.095Z,36.40
2018-10-18T11:09:09.700Z,34.93
2018-10-18T11:11:38.086Z,35.73
2018-10-18T11:14:06.771Z,36.43
2018-10-18T11:16:35.172Z,36.23
2018-10-18T11:19:03.863Z,38.83
2018-10-18T11:21:32.312Z,43.20
2018-10-18T11:24:00.621Z,39.53
2018-10-18T11:26:28.961Z,36.60
2018-10-18T11:28:57.319Z,37.20
2018-10-18T11:31:25.782Z,36.10
2018-10-18T11:33:54.161Z,38.57
2018-10-18T11:36:22.579Z,38.17
2018-10-18T11:38:50.977Z,38.37
2018-10-18T11:41:19.355Z,38.63
2018-10-18T11:43:47.893Z,35.27
2018-10-18T11:46:16.292Z,37.50
2018-10-18T11:48:44.719Z,38.00
2018-10-18T11:51:13.049Z,36.53
2018-10-18T11:53:41.538Z,36.73
2018-10-18T11:56:10.014Z,38.80
2018-10-18T11:58:38.319Z,38.77
2018-10-18T12:01:06.775Z,38.00
2018-10-18T12:03:35.184Z,39.73
2018-10-18T12:06:03.598Z,37.30
2018-10-18T12:08:32.041Z,39.33
2018-10-18T12:11:00.504Z,40.00
2018-10-18T12:13:28.829Z,40.70
2018-10-18T12:15:57.235Z,39.47
2018-10-18T12:18:25.697Z,37.47
2018-10-18T12:20:54.170Z,39.30
2018-10-18T12:23:22.547Z,38.10
2018-10-18T12:25:50.948Z,32.73
2018-10-18T12:28:19.302Z,33.67
2018-10-18T12:30:47.695Z,32.67
2018-10-18T12:33:16.143Z,32.47
2018-10-18T12:35:44.565Z,33.40
2018-10-18T12:38:13.197Z,30.27
2018-10-18T12:40:41.503Z,31.17
2018-10-18T12:43:09.975Z,30.13
2018-10-18T12:45:38.415Z,31.50
2018-10-18T12:48:06.920Z,30.60
2018-10-18T12:50:35.254Z,31.30
2018-10-18T12:53:03.770Z,28.93
2018-10-18T12:55:32.123Z,26.33
2018-10-18T12:58:00.615Z,28.70
2018-10-18T13:00:29.004Z,27.37
2018-10-18T13:02:57.372Z,26.43
2018-10-18T13:05:25.759Z,22.90
2018-10-18T13:07:54.254Z,23.03
2018-10-18T13:10:22.588Z,20.10
2018-10-18T13:12:50.997Z,23.80
2018-10-18T13:15:19.590Z,26.00
2018-10-18T13:17:48.070Z,25.90
2018-10-18T13:20:16.789Z,27.30
2018-10-18T13:22:45.048Z,22.47
2018-10-18T13:25:13.506Z,24.17
2018-10-18T13:27:41.903Z,22.37
2018-10-18T13:30:11.527Z,18.77
2018-10-18T13:32:40.647Z,18.50
2018-10-18T13:35:09.817Z,23.57
2018-10-18T13:37:38.395Z,21.20
2018-10-18T13:40:07.975Z,24.00
2018-10-18T13:42:36.522Z,21.70
2018-10-18T13:45:05.611Z,22.20
2018-10-18T13:47:34.010Z,22.03
2018-10-18T13:50:02.439Z,20.80
2018-10-18T13:52:30.803Z,22.00
2018-10-18T13:54:59.231Z,22.07
2018-10-18T13:57:27.823Z,23.97
2018-10-18T14:00:06.207Z,23.70
2018-10-18T14:02:34.648Z,28.00
2018-10-18T14:05:03.140Z,28.90
2018-10-18T14:07:31.540Z,27.30
2018-10-18T14:09:59.937Z,25.43
2018-10-18T14:12:28.343Z,27.23
2018-10-18T14:14:56.691Z,25.50
2018-10-18T14:17:25.366Z,26.80
2018-10-18T14:19:53.627Z,25.73
2018-10-18T14:22:22.002Z,26.70
2018-10-18T14:24:50.399Z,25.23
2018-10-18T14:27:18.741Z,24.47
2018-10-18T14:29:47.179Z,25.23
2018-10-18T14:32:15.667Z,22.67
2018-10-18T14:34:43.981Z,24.07
2018-10-18T14:37:12.401Z,25.40
2018-10-18T14:39:40.844Z,25.60
2018-10-18T14:42:09.207Z,24.30
2018-10-18T14:44:37.812Z,24.80
2018-10-18T14:47:06.489Z,24.07
2018-10-18T14:49:34.821Z,23.90
2018-10-18T14:52:03.310Z,24.40
2018-10-18T14:54:31.626Z,26.27
2018-10-18T14:57:00.050Z,26.00
2018-10-18T14:59:28.469Z,26.57
2018-10-18T15:01:56.925Z,24.90
2018-10-18T15:04:25.361Z,25.93
2018-10-18T15:06:53.764Z,28.20
2018-10-18T15:09:22.194Z,28.17
2018-10-18T15:11:50.645Z,27.30
2018-10-18T15:14:19.080Z,29.10
2018-10-18T15:16:47.515Z,28.77
2018-10-18T15:19:16.121Z,28.63
2018-10-18T15:21:44.669Z,29.87
2018-10-18T15:24:13.103Z,32.20
2018-10-18T15:26:41.636Z,31.30
2018-10-18T15:29:10.274Z,31.83
2018-10-18T15:31:38.630Z,32.77
2018-10-18T15:34:07.376Z,29.40
2018-10-18T15:36:35.813Z,30.53
2018-10-18T15:39:06.113Z,30.10
2018-10-18T15:41:34.485Z,29.47
2018-10-18T15:44:02.984Z,30.33
2018-10-18T15:46:31.374Z,29.83
2018-10-18T15:48:59.827Z,30.77
2018-10-18T15:51:28.265Z,29.70
2018-10-18T15:53:56.755Z,30.37
2018-10-18T15:56:25.202Z,28.87
2018-10-18T15:58:53.576Z,30.40
2018-10-18T16:01:22.024Z,30.73
2018-10-18T16:03:50.801Z,28.90
2018-10-18T16:06:19.271Z,29.50
2018-10-18T16:08:47.717Z,29.63
2018-10-18T16:11:16.104Z,30.00
2018-10-18T16:13:44.533Z,28.70
2018-10-18T16:16:12.999Z,27.37
2018-10-18T16:18:41.472Z,29.50
2018-10-18T16:21:09.985Z,29.60
2018-10-18T16:23:38.436Z,28.83
2018-10-18T16:26:06.942Z,26.67
2018-10-18T16:28:35.274Z,28.40
2018-10-18T16:31:03.823Z,27.60
2018-10-18T16:33:32.269Z,26.33
2018-10-18T16:36:00.668Z,28.60
2018-10-18T16:38:29.026Z,27.50
2018-10-18T16:40:57.507Z,29.40
2018-10-18T16:43:26.236Z,28.30
2018-10-18T16:45:54.716Z,30.10
2018-10-18T16:48:23.156Z,28.73
2018-10-18T16:50:51.493Z,30.17
2018-10-18T16:53:19.944Z,28.87
2018-10-18T16:55:48.322Z,29.13
2018-10-18T16:58:16.839Z,32.07
2018-10-18T17:00:45.185Z,30.50
2018-10-18T17:03:13.726Z,29.07
2018-10-18T17:05:42.219Z,29.47
2018-10-18T17:08:10.667Z,27.00
2018-10-18T17:10:39.007Z,27.90
2018-10-18T17:13:07.432Z,29.93
2018-10-18T17:15:35.964Z,27.57
2018-10-18T17:18:04.453Z,29.10
2018-10-18T17:20:33.014Z,29.67
2018-10-18T17:23:01.613Z,30.13
2018-10-18T17:25:30.016Z,29.63
2018-10-18T17:27:58.644Z,26.93
2018-10-18T17:30:27.066Z,29.23
2018-10-18T17:32:55.451Z,30.33
2018-10-18T17:35:23.877Z,29.27
2018-10-18T17:37:52.320Z,31.03
2018-10-18T17:40:21.057Z,31.27
2018-10-18T17:42:49.794Z,29.03
2018-10-18T17:45:18.167Z,32.80
2018-10-18T17:47:46.768Z,30.77
2018-10-18T17:50:15.214Z,32.67
2018-10-18T17:52:43.693Z,32.93
2018-10-18T17:55:12.128Z,32.93
2018-10-18T17:57:40.551Z,32.33
2018-10-18T18:00:11.810Z,31.87
2018-10-18T18:02:40.452Z,34.50
2018-10-18T18:05:09.455Z,31.80
2018-10-18T18:07:37.938Z,32.67
2018-10-18T18:10:08.735Z,32.40
2018-10-18T18:12:37.731Z,33.10
2018-10-18T18:15:06.577Z,32.77
2018-10-18T18:17:35.068Z,33.93
2018-10-18T18:20:03.488Z,33.97
2018-10-18T18:22:32.132Z,32.50
2018-10-18T18:25:00.743Z,35.00
2018-10-18T18:27:29.249Z,31.43
2018-10-18T18:29:57.681Z,32.17
2018-10-18T18:32:26.233Z,34.10
2018-10-18T18:34:54.637Z,36.30
2018-10-18T18:37:23.143Z,36.03
2018-10-18T18:39:51.556Z,33.83
2018-10-18T18:42:20.281Z,37.90
2018-10-18T18:44:48.818Z,34.27
2018-10-18T18:47:17.210Z,36.00
2018-10-18T18:49:45.581Z,36.00
2018-10-18T18:52:14.223Z,36.90
2018-10-18T18:54:42.643Z,35.50
2018-10-18T18:57:11.162Z,33.70
2018-10-18T18:59:39.465Z,36.60
2018-10-18T19:02:07.902Z,37.60
2018-10-18T19:04:36.305Z,36.90
2018-10-18T19:07:05.736Z,36.67
2018-10-18T19:09:34.144Z,39.50
2018-10-18T19:12:02.563Z,36.20
2018-10-18T19:14:31.077Z,35.50
2018-10-18T19:16:59.551Z,36.40
2018-10-18T19:19:28.143Z,35.30
2018-10-18T19:21:56.553Z,35.17
2018-10-18T19:24:24.984Z,35.27
2018-10-18T19:26:53.304Z,36.07
2018-10-18T19:29:21.723Z,37.03
2018-10-18T19:31:50.139Z,36.37
2018-10-18T19:34:18.613Z,37.00
2018-10-18T19:36:46.928Z,36.30
2018-10-18T19:39:15.361Z,35.97
2018-10-18T19:41:43.781Z,38.70
2018-10-18T19:44:12.231Z,37.30
2018-10-18T19:46:40.668Z,36.87
2018-10-18T19:49:08.898Z,33.30
2018-10-18T19:51:37.305Z,34.27
2018-10-18T19:54:06.375Z,36.10
2018-10-18T19:56:34.839Z,34.83
2018-10-18T19:59:03.238Z,34.40
2018-10-18T20:01:31.587Z,35.27
2018-10-18T20:03:59.985Z,35.20
2018-10-18T20:06:28.443Z,35.47
2018-10-18T20:08:56.809Z,34.60
2018-10-18T20:11:25.171Z,36.90
2018-10-18T20:13:53.513Z,37.00
2018-10-18T20:16:21.992Z,37.60
2018-10-18T20:18:50.340Z,36.83
2018-10-18T20:21:18.695Z,37.97
2018-10-18T20:23:47.065Z,36.60
2018-10-18T20:26:15.674Z,37.43
2018-10-18T20:28:43.903Z,35.80
2018-10-18T20:31:12.269Z,36.17
2018-10-18T20:33:40.655Z,36.00
2018-10-18T20:36:09.019Z,34.27
2018-10-18T20:38:37.318Z,35.03
2018-10-18T20:41:05.904Z,35.73
2018-10-18T20:43:34.417Z,36.90
2018-10-18T20:46:02.818Z,35.90
2018-10-18T20:48:31.164Z,36.67
2018-10-18T20:50:59.583Z,37.20
2018-10-18T20:53:27.941Z,37.03
2018-10-18T20:55:56.419Z,35.57
2018-10-18T20:58:24.846Z,37.70
2018-10-18T21:00:53.195Z,37.37
2018-10-18T21:03:21.633Z,35.77
2018-10-18T21:05:50.045Z,37.17
2018-10-18T21:08:18.525Z,36.30
2018-10-18T21:10:46.962Z,36.10
2018-10-18T21:13:15.279Z,37.20
2018-10-18T21:15:43.745Z,37.13
2018-10-18T21:18:12.181Z,38.40
2018-10-18T21:20:40.467Z,36.57
2018-10-18T21:23:08.893Z,35.33
2018-10-18T21:25:37.283Z,38.70
2018-10-18T21:28:05.994Z,36.20
2018-10-18T21:30:34.449Z,38.40
2018-10-18T21:33:02.812Z,39.47
2018-10-18T21:35:31.210Z,42.00
2018-10-18T21:37:59.624Z,42.47
2018-10-18T21:40:27.932Z,39.60
2018-10-18T21:42:56.334Z,41.40
2018-10-18T21:45:24.693Z,40.50
2018-10-18T21:47:53.497Z,40.17
2018-10-18T21:50:21.952Z,37.10
2018-10-18T21:52:50.385Z,39.50
2018-10-18T21:55:18.790Z,36.30
2018-10-18T21:57:47.140Z,34.80
2018-10-18T22:00:16.728Z,35.87
2018-10-18T22:02:45.912Z,37.50
2018-10-18T22:05:14.981Z,37.50
2018-10-18T22:07:44.117Z,37.43
2018-10-18T22:10:13.273Z,38.60
2018-10-18T22:12:41.649Z,37.53
2018-10-18T22:15:11.018Z,38.90
2018-10-18T22:17:39.318Z,37.50
2018-10-18T22:20:08.627Z,38.40
2018-10-18T22:22:37.329Z,35.63
2018-10-18T22:25:07.360Z,36.97
2018-10-18T22:27:35.749Z,37.20
2018-10-18T22:30:04.335Z,37.80
2018-10-18T22:32:32.714Z,36.80
2018-10-18T22:35:01.057Z,35.67
2018-10-18T22:37:29.446Z,35.63
2018-10-18T22:39:57.793Z,37.33
2018-10-18T22:42:26.202Z,33.53
2018-10-18T22:44:54.569Z,35.13
2018-10-18T22:47:22.935Z,35.80
2018-10-18T22:49:51.288Z,34.53
2018-10-18T22:52:19.669Z,34.77
2018-10-18T22:54:48.463Z,35.60
2018-10-18T22:57:16.941Z,37.57
2018-10-18T22:59:45.211Z,38.37
2018-10-18T23:02:13.595Z,36.00
2018-10-18T23:04:41.964Z,35.00
2018-10-18T23:07:10.358Z,36.17
2018-10-18T23:09:38.767Z,36.90
2018-10-18T23:12:07.204Z,35.87
2018-10-18T23:14:35.567Z,34.53
2018-10-18T23:17:04.303Z,32.07
2018-10-18T23:19:32.682Z,36.50
2018-10-18T23:22:01.028Z,36.53
2018-10-18T23:24:29.413Z,35.33
2018-10-18T23:26:57.787Z,38.90
2018-10-18T23:29:26.173Z,36.10
2018-10-18T23:31:54.573Z,34.47
2018-10-18T23:34:22.950Z,34.87
2018-10-18T23:36:51.332Z,34.80
2018-10-18T23:39:19.814Z,32.83
2018-10-18T23:41:48.321Z,35.10
2018-10-18T23:44:16.666Z,32.30
2018-10-18T23:46:45.041Z,33.30
2018-10-18T23:49:13.423Z,33.30
2018-10-18T23:51:41.777Z,34.73
2018-10-18T23:54:10.169Z,31.50
2018-10-18T23:56:38.525Z,35.87
2018-10-18T23:59:06.985Z,36.27
